AirNav   Everest Fuels
 
 440 users online  

FD86 Deep Woods Ranch Airport
DeLand, Florida, USA

GOING TO DELAND?


FAA INFORMATION EFFECTIVE 08 OCTOBER 2020

Location

FAA Identifier: FD86
Lat/Long: 29-01-48.9430N 081-26-49.2430W
29-01.815717N 081-26.820717W
29.0302619,-81.4470119
(estimated)
Elevation: 45 ft. / 14 m (estimated)
Variation: 03W (1985)
From city: 10 miles NE of DELAND, FL
Time zone: UTC -4 (UTC -5 during Standard Time)
Zip code: 32720

Airport Operations

Airport use: Private use. Permission required prior to landing
Activation date: 01/1990
Control tower: no
ARTCC: JACKSONVILLE CENTER
FSS: SAINT PETERSBURG FLIGHT SERVICE STATION
Attendance: UNATNDD
Wind indicator: yes
Segmented circle: no

Airport Communications

WX AWOS-3 at DED (9 nm E): 119.575 (386-740-5811)
WX ASOS at SFB (19 nm SE): PHONE 407-321-9384

Nearby radio navigation aids

VOR radial/distance  VOR name  Freq  Var
OMNr227/24.0ORMOND BEACH VORTAC112.6000E
ORLr349/29.8ORLANDO VORTAC112.2000E

Airport Services

Runway Information

Runway 5/23

Dimensions: 2800 x 100 ft. / 853 x 30 m
Surface: turf
RUNWAY 5  RUNWAY 23
Traffic pattern: leftleft
Displaced threshold: 800 ft.730 ft.
Obstructions: 50 ft. trees, 600 ft. from runwaynone

Airport Ownership and Management from official FAA records

Ownership: Privately-owned
Owner: JOHN W.H. SCHMALE
P.O. BOX 549
DELAND, FL 32721-0549
Phone 904-669-2221
Manager: JOHN K. SCHMALE
46800 DEEP WOODS ROAD
PAISLEY, FL 32767
Phone 904-669-4240

Airport Operational Statistics

Aircraft based on the field: 1
Single engine airplanes: 1
    

Additional Remarks

FOR CD CTC DAYTONA APCH AT 386-226-3939.

Instrument Procedures

There are no published instrument procedures at FD86.

Some nearby airports with instrument procedures:

KDED - DeLand Municipal Airport-Sidney H Taylor Field (9 nm E)
X23 - Umatilla Municipal Airport (12 nm SW)
KSFB - Orlando Sanford International Airport (19 nm SE)
X04 - Orlando Apopka Airport (21 nm S)
KDAB - Daytona Beach International Airport (22 nm NE)
 
Loc | Ops | Rwys | IFR | FBO | Links
Com | Nav | Svcs | Stats | Notes


 
Area around FD86 (Deep Woods Ranch Airport)
 
Road maps at: MapQuest Bing Google
 
Aerial photo
No photo
 
Sectional chart

 
Airport distance calculator
Flying to Deep Woods Ranch Airport? Find the distance to fly.

From to FD86

Sunrise and sunset
Times for 22-Oct-2020
 Local
(UTC-4)
 Zulu
(UTC)
Morning civil twilight07:0911:09
Sunrise07:3311:33
Sunset18:4722:47
Evening civil twilight19:1123:11

Current date and time
Zulu (UTC)  22-Oct-2020 10:15:14
Local (UTC-4)  22-Oct-2020 06:15:14
 
METAR
KDED 
9nm E 
220950Z AUTO 00000KT 10SM SCT031 SCT065 23/22 A3002 RMK AO2 T02260217
KSFB 
20nm SE 
220953Z AUTO 04003KT 10SM CLR 23/21 A3000 RMK AO2 SLP158 T02280211
TAF
KSFB 
20nm SE 
220541Z 2206/2306 06008KT P6SM VCSH SCT035 BKN140 FM220630 07004KT P6SM FEW040 BKN100 FM221500 09009KT P6SM SCT025 BKN150 FM221700 08011KT P6SM VCSH SCT030 BKN250 FM230000 07008KT P6SM SCT025 BKN100
KDAB 
22nm NE 
220541Z 2206/2306 09008KT P6SM VCSH SCT030 BKN070 FM220700 05005KT P6SM FEW040 BKN100 FM221500 08010G18KT P6SM VCSH SCT025 BKN150 FM230000 07008KT P6SM SCT025 BKN100
KLEE 
23nm SW 
220541Z 2206/2306 03006KT P6SM FEW040 SCT100 FM221500 06006KT P6SM SCT025 BKN150 FM221800 08009KT P6SM VCSH SCT030 BKN250 FM230000 07006KT P6SM SCT025 BKN100
NOTAMs
Click for the latest NOTAMs
NOTAMs are issued by the DoD/FAA and will open in a separate window not controlled by AirNav.

 

 
 

Would you like to see your business listed on this page?

 If your business provides an interesting product or service to pilots, flight crews, aircraft, or users of the Deep Woods Ranch Airport, you should consider listing it here.  To start the listing process, click on the button below
 
Add a business
 

Other Pages about Deep Woods Ranch Airport

Update a link
 
Copyright © AirNav, LLC. All rights reserved. Privacy Policy  Contact